Hauptseite
METAR-TAF:

METAR-TAF

Flughäfen :

Flugplatz Les Eplatures

La Chaux-de-Fonds, Schweiz

Breite: 47-05-03N, Länge: 006-47-37E, Höhe: 1027 m

Beobachtung

Neuester Wetterbericht von vor 30 Minuten, um 03:50 UTC
Windstille
Temperatur 1°C
Luftfeuchtigkeit 80%
Luftdruck 1007 hPa
Sichtweite 10 km oder mehr

METAR: LSGC 210350Z AUTO 00000KT 9999 NSC 01/M02 Q1007

Zeit: 05:20 (04:20 UTC)

Prognose

Neuester Wetterbericht von vor 13 Stunden und 55 Minuten, um 14:25 UTC
Gültige Prognose vom 20 um 15 UTC bis 20 um 24 UTC
Wind 3 kt aus unterschiedlichen Richtungen
Sichtweite 10 km oder mehr
Aufgelockert bewölkt in der Höhe von 2500 ft
Durchbrochene Bewölkung in der Höhe von 7000 ft
Wahrscheinlichkeit 30% :
Zeitweise
vom 20 um 15 UTC bis 20 um 17 UTC
Sichtweite: 4000 m
Geschlossene Wolkendecke in der Höhe von 1400 ft
Schnee leicht

TAF: LSGC 201425Z 2015/2024 VRB03KT 9999 SCT025 BKN070 PROB30 TEMPO 2015/2017 4000 -SN OVC014

Wetterbeobachtungen und Prognosen von mehr als 4000 Flughäfen (METAR und TAF Bericht).

Die verfügbaren Stationen werden durch gelbe und rote Markierungen auf der Karte dargestellt.

Führen Sie die Maus auf sie, um den Namen der Station zu sehen.

Darauf klicken, um die Beobachtung von Wetterbeobachtungen und Prognosen zu sehen.

Um die Karte zu ändern : klicken Sie auf den grünen Tasten mit einem schwarzen Kreuz Zum Vergrößern, auf den grünen Button mit einem Gedankenstrich zu verkleinern, oder auf die grünen Pfeile für benachbarte Karten.


METAR-TAF: